Time;durP1;ratioP1;P1;durP2;ratioP2;P2;SDS_P1;SDS_P2;PMS_P1;PMS_P2;Temp;Humidity;BMP_temperature;BMP_pressure;BME280_temperature;BME280_humidity;BME280_pressure;Samples;Min_cycle;Max_cycle;Signal;HPM_P1;HPM_P2
2022/12/07 00:02:04;;;;;;;0.10;0.10;;;;;;;;;;5009816;28;20088;-86
2022/12/07 00:04:31;;;;;;;0.10;0.10;;;5.30;99.90;;;;;;5007519;28;20061;-86
2022/12/07 00:06:58;;;;;;;0.10;0.10;;;;;;;;;;5008595;28;20490;-86
2022/12/07 00:09:25;;;;;;;0.10;0.10;;;5.30;99.90;;;;;;5005685;28;20122;-86
2022/12/07 00:11:52;;;;;;;0.10;0.10;;;;;;;;;;5030928;28;20081;-86
2022/12/07 00:14:21;;;;;;;0.10;0.10;;;5.30;99.90;;;;;;5010909;28;20141;-85
2022/12/07 00:16:49;;;;;;;0.00;0.00;;;5.30;99.90;;;;;;5026128;28;20507;-86
2022/12/07 00:19:16;;;;;;;0.10;0.10;;;;;;;;;;5006222;28;20057;-85
2022/12/07 00:21:44;;;;;;;0.10;0.10;;;;;;;;;;5002346;28;20500;-86
2022/12/07 00:24:12;;;;;;;0.10;0.10;;;;;;;;;;5009131;28;20112;-86
2022/12/07 00:26:40;;;;;;;0.10;0.10;;;5.30;99.90;;;;;;5028244;28;20107;-85
2022/12/07 00:29:11;;;;;;;0.10;0.10;;;8.30;99.90;;;;;;5023391;28;20487;-84
2022/12/07 00:31:39;;;;;;;0.10;0.10;;;5.20;99.90;;;;;;5010823;28;20077;-85
2022/12/07 00:34:11;;;;;;;0.10;0.10;;;5.20;99.90;;;;;;5014936;28;20038;-85
2022/12/07 00:36:38;;;;;;;0.10;0.10;;;;;;;;;;5010941;28;20137;-86
2022/12/07 00:39:05;;;;;;;0.00;0.00;;;;;;;;;;5008304;28;20549;-87
2022/12/07 00:41:33;;;;;;;0.10;0.10;;;;;;;;;;5011858;28;20141;-85
2022/12/07 00:44:00;;;;;;;0.10;0.10;;;;;;;;;;5008421;28;20105;-86
2022/12/07 00:46:27;;;;;;;0.10;0.10;;;;;;;;;;5011749;28;20061;-86
2022/12/07 00:48:55;;;;;;;0.10;0.10;;;5.20;99.90;;;;;;5009480;28;20057;-83
2022/12/07 00:51:24;;;;;;;0.10;0.10;;;5.20;99.90;;;;;;5025796;28;20057;-85
2022/12/07 00:53:52;;;;;;;0.10;0.10;;;;;;;;;;5009604;28;20034;-86
2022/12/07 00:56:21;;;;;;;0.10;0.10;;;5.20;99.90;;;;;;5026192;28;20494;-87
2022/12/07 00:58:53;;;;;;;0.20;0.20;;;5.20;99.90;;;;;;5011825;28;20057;-86
2022/12/07 01:01:20;;;;;;;0.03;0.03;;;;;;;;;;5024461;28;20092;-85
2022/12/07 01:03:47;;;;;;;0.10;0.10;;;;;;;;;;5007773;28;20053;-87
2022/12/07 01:06:17;;;;;;;0.10;0.10;;;5.20;99.90;;;;;;5013746;28;20367;-85
2022/12/07 01:08:44;;;;;;;0.10;0.10;;;5.20;99.90;;;;;;5018080;28;20050;-86
2022/12/07 01:11:13;;;;;;;0.10;0.10;;;5.10;99.90;;;;;;5008887;28;20074;-86
2022/12/07 01:13:41;;;;;;;0.10;0.10;;;5.10;99.90;;;;;;5028898;28;20121;-83
2022/12/07 01:16:08;;;;;;;0.10;0.10;;;;;;;;;;5007480;28;20555;-85
2022/12/07 01:18:36;;;;;;;0.10;0.10;;;5.20;99.90;;;;;;5023320;28;20107;-85
2022/12/07 01:21:05;;;;;;;0.10;0.10;;;5.10;99.90;;;;;;5011123;28;20133;-87
2022/12/07 01:23:34;;;;;;;0.10;0.10;;;5.10;99.90;;;;;;5016967;28;20124;-85
2022/12/07 01:26:04;;;;;;;0.10;0.10;;;5.20;99.90;;;;;;5020342;28;20085;-87
2022/12/07 01:28:32;;;;;;;0.10;0.10;;;;;;;;;;5021843;28;20053;-86
2022/12/07 01:31:00;;;;;;;0.10;0.10;;;5.20;99.90;;;;;;5012643;28;20073;-86
2022/12/07 01:33:29;;;;;;;0.10;0.10;;;5.20;99.90;;;;;;5029525;28;20046;-86
2022/12/07 01:36:01;;;;;;;0.10;0.10;;;5.20;99.90;;;;;;5013819;28;20124;-88
2022/12/07 01:38:29;;;;;;;0.10;0.10;;;5.20;99.90;;;;;;5013338;28;20490;-86
2022/12/07 01:40:59;;;;;;;0.10;0.10;;;5.10;99.90;;;;;;5008939;28;20057;-86
2022/12/07 01:43:28;;;;;;;0.10;0.10;;;5.10;99.90;;;;;;5009901;28;20060;-86
2022/12/07 01:45:55;;;;;;;0.20;0.20;;;;;;;;;;5029084;28;20124;-85
2022/12/07 01:48:26;;;;;;;0.10;0.10;;;5.00;99.90;;;;;;5009956;28;20320;-85
2022/12/07 01:50:57;;;;;;;0.10;0.10;;;5.00;99.90;;;;;;5030697;28;20547;-87
2022/12/07 01:53:27;;;;;;;0.10;0.10;;;5.00;99.90;;;;;;5017246;28;20121;-85
2022/12/07 01:55:56;;;;;;;0.00;0.00;;;5.00;99.90;;;;;;5028244;28;20050;-86
2022/12/07 01:58:24;;;;;;;0.10;0.10;;;4.90;99.90;;;;;;5010454;28;20068;-85
2022/12/07 02:00:52;;;;;;;0.10;0.10;;;;;;;;;;5030868;28;20481;-87
2022/12/07 02:03:21;;;;;;;0.10;0.10;;;4.90;99.90;;;;;;5009218;28;20081;-85
2022/12/07 02:05:49;;;;;;;;;;;4.80;99.90;;;;;;5015178;28;20056;-85
2022/12/07 02:08:17;;;;;;;0.10;0.10;;;4.90;99.90;;;;;;5010721;28;19984;-86
2022/12/07 02:10:44;;;;;;;0.10;0.10;;;;;;;;;;5034186;28;20140;-86
2022/12/07 02:13:15;;;;;;;0.10;0.10;;;4.70;99.90;;;;;;5012948;28;20046;-85
2022/12/07 02:15:59;;;;;;;0.10;0.10;;;4.70;99.90;;;;;;5008733;28;20084;-86
2022/12/07 02:18:41;;;;;;;0.10;0.10;;;4.60;99.90;;;;;;5008863;28;20046;-85
2022/12/07 02:21:13;;;;;;;0.03;0.03;;;4.60;99.90;;;;;;5011968;28;20092;-86
2022/12/07 02:24:00;;;;;;;0.10;0.10;;;4.50;99.90;;;;;;5012963;28;20054;-86
2022/12/07 02:26:51;;;;;;;0.10;0.10;;;4.50;99.90;;;;;;5010331;28;20130;-84
2022/12/07 02:29:22;;;;;;;0.10;0.10;;;4.60;99.90;;;;;;5008529;28;20719;-87
2022/12/07 02:32:02;;;;;;;0.10;0.10;;;4.60;99.90;;;;;;5012978;28;20050;-84
2022/12/07 02:34:39;;;;;;;0.10;0.10;;;4.60;99.90;;;;;;5022175;28;20165;-86
2022/12/07 02:37:15;;;;;;;0.10;0.10;;;4.60;99.90;;;;;;5008821;28;20054;-85
2022/12/07 02:39:48;;;;;;;0.10;0.10;;;5.90;99.90;;;;;;5005506;28;20117;-85
2022/12/07 02:42:18;;;;;;;0.10;0.10;;;4.60;99.90;;;;;;5011387;28;20046;-87
2022/12/07 02:44:47;;;;;;;0.10;0.10;;;4.60;99.90;;;;;;5018484;28;20100;-86
2022/12/07 02:47:16;;;;;;;0.10;0.10;;;4.50;99.90;;;;;;5010207;28;20121;-85
2022/12/07 02:49:44;;;;;;;0.17;0.17;;;;;;;;;;5009195;28;20050;-85
2022/12/07 02:52:11;;;;;;;0.10;0.10;;;;;;;;;;5015770;28;22266;-85
2022/12/07 02:54:38;;;;;;;0.10;0.10;;;;;;;;;;5026358;28;20046;-85
2022/12/07 02:57:21;;;;;;;0.10;0.10;;;4.40;99.90;;;;;;5011222;28;20480;-86
2022/12/07 03:00:00;;;;;;;0.10;0.10;;;4.40;99.90;;;;;;5006508;28;20487;-86
2022/12/07 03:02:36;;;;;;;0.10;0.10;;;4.40;99.90;;;;;;5008770;28;20411;-86
2022/12/07 03:05:20;;;;;;;0.10;0.10;;;4.40;99.90;;;;;;5004360;28;20585;-85
2022/12/07 03:07:57;;;;;;;0.10;0.10;;;4.30;99.90;;;;;;5011458;28;20049;-85
2022/12/07 03:10:32;;;;;;;0.20;0.20;;;4.30;99.90;;;;;;5009329;28;20054;-87
2022/12/07 03:13:05;;;;;;;0.10;0.10;;;4.40;99.90;;;;;;5025298;28;20085;-84
2022/12/07 03:15:39;;;;;;;0.10;0.10;;;4.50;99.90;;;;;;5011443;28;20882;-87
2022/12/07 03:18:07;;;;;;;0.10;0.10;;;4.30;99.90;;;;;;5015725;28;20649;-85
2022/12/07 03:20:37;;;;;;;0.10;0.10;;;4.40;99.90;;;;;;5013507;28;20116;-85
2022/12/07 03:23:05;;;;;;;0.10;0.10;;;4.40;99.90;;;;;;5006453;28;20046;-85
2022/12/07 03:25:35;;;;;;;0.10;0.10;;;4.30;99.90;;;;;;5013923;28;22275;-85
2022/12/07 03:28:04;;;;;;;0.10;0.10;;;4.30;99.90;;;;;;5013556;28;20041;-85
2022/12/07 03:30:37;;;;;;;0.10;0.10;;;4.30;99.90;;;;;;5010033;28;20317;-85
2022/12/07 03:33:10;;;;;;;0.10;0.10;;;4.30;99.90;;;;;;5009093;28;20050;-85
2022/12/07 03:35:42;;;;;;;0.10;0.10;;;4.30;99.90;;;;;;5025623;28;20084;-85
2022/12/07 03:38:17;;;;;;;0.10;0.10;;;4.30;99.90;;;;;;5011494;28;20234;-85
2022/12/07 03:40:49;;;;;;;0.10;0.10;;;4.30;99.90;;;;;;5002190;28;20484;-85
2022/12/07 03:43:18;;;;;;;0.10;0.10;;;4.20;99.90;;;;;;5003011;28;20074;-84
2022/12/07 03:45:58;;;;;;;0.10;0.10;;;4.10;99.90;;;;;;5008230;28;20040;-84
2022/12/07 03:48:33;;;;;;;0.10;0.10;;;4.10;99.90;;;;;;5010465;28;20071;-86
2022/12/07 03:51:07;;;;;;;0.10;0.10;;;4.10;99.90;;;;;;5006083;28;20478;-85
2022/12/07 03:53:39;;;;;;;0.10;0.10;;;4.10;99.90;;;;;;5003985;28;20083;-84
2022/12/07 03:56:08;;;;;;;0.10;0.10;;;4.10;99.90;;;;;;5010583;28;20076;-85
2022/12/07 03:58:35;;;;;;;0.10;0.10;;;;;;;;;;5009481;28;20392;-85
2022/12/07 04:01:03;;;;;;;0.10;0.10;;;4.10;99.90;;;;;;5006493;28;20050;-85
2022/12/07 04:03:31;;;;;;;0.10;0.10;;;;;;;;;;5008373;28;20056;-86
2022/12/07 04:05:58;;;;;;;0.10;0.10;;;;;;;;;;5011144;28;20090;-86
2022/12/07 04:08:25;;;;;;;0.10;0.10;;;4.10;99.90;;;;;;5006201;28;20499;-85
2022/12/07 04:10:53;;;;;;;0.13;0.13;;;;;;;;;;5024358;28;20042;-86
2022/12/07 04:13:20;;;;;;;0.10;0.10;;;;;;;;;;5008112;28;20049;-86
2022/12/07 04:15:47;;;;;;;0.10;0.10;;;;;;;;;;5012071;28;20049;-86
2022/12/07 04:18:15;;;;;;;0.10;0.10;;;3.90;99.90;;;;;;5027477;28;20046;-86
2022/12/07 04:20:42;;;;;;;0.10;0.10;;;;;;;;;;5010004;28;20101;-86
2022/12/07 04:23:10;;;;;;;0.10;0.10;;;;;;;;;;5004489;28;20056;-86
2022/12/07 04:25:36;;;;;;;0.10;0.10;;;4.00;99.90;;;;;;5007355;28;20094;-85
2022/12/07 04:28:04;;;;;;;0.10;0.10;;;4.00;99.90;;;;;;5002223;28;20125;-87
2022/12/07 04:30:31;;;;;;;0.03;0.03;;;;;;;;;;5008256;28;20050;-86
2022/12/07 04:32:58;;;;;;;0.20;0.20;;;;;;;;;;5018724;28;20081;-86
2022/12/07 04:35:26;;;;;;;0.10;0.10;;;4.10;99.90;;;;;;5021575;28;20129;-87
2022/12/07 04:37:53;;;;;;;0.10;0.10;;;4.00;99.90;;;;;;5004423;28;20082;-86
2022/12/07 04:40:20;;;;;;;0.10;0.10;;;;;;;;;;5025502;28;20519;-85
2022/12/07 04:42:47;;;;;;;0.10;0.10;;;4.10;99.90;;;;;;5006151;28;20133;-85
2022/12/07 04:45:14;;;;;;;0.10;0.10;;;;;;;;;;5004441;28;20080;-84
2022/12/07 04:47:41;;;;;;;0.10;0.10;;;;;;;;;;5010687;28;20054;-85
2022/12/07 04:50:09;;;;;;;0.15;0.15;;;4.10;99.90;;;;;;5022367;28;20037;-86
2022/12/07 04:52:38;;;;;;;0.10;0.10;;;4.10;99.90;;;;;;5010494;28;20077;-85
2022/12/07 04:55:05;;;;;;;0.10;0.10;;;;;;;;;;5026949;28;20571;-85
2022/12/07 04:57:32;;;;;;;0.15;0.15;;;;;;;;;;5009780;28;20052;-84
2022/12/07 04:59:59;;;;;;;0.10;0.10;;;;;;;;;;5024513;28;20439;-85
2022/12/07 05:02:27;;;;;;;0.10;0.10;;;4.10;99.90;;;;;;5007857;28;20045;-86
2022/12/07 05:04:54;;;;;;;0.10;0.10;;;4.10;99.90;;;;;;5000816;28;20039;-85
2022/12/07 05:07:21;;;;;;;0.10;0.10;;;4.10;99.90;;;;;;5010412;28;20514;-85
2022/12/07 05:09:49;;;;;;;0.10;0.10;;;4.10;99.90;;;;;;5003718;28;20419;-86
2022/12/07 05:12:16;;;;;;;0.10;0.10;;;;;;;;;;5008548;28;20069;-86
2022/12/07 05:14:43;;;;;;;0.10;0.10;;;;;;;;;;5008041;28;20062;-84
2022/12/07 05:17:11;;;;;;;0.10;0.10;;;;;;;;;;5011198;28;20050;-87
2022/12/07 05:19:38;;;;;;;0.10;0.10;;;;;;;;;;5007403;28;20157;-85
2022/12/07 05:22:05;;;;;;;0.10;0.10;;;;;;;;;;5009807;28;20048;-86
2022/12/07 05:24:32;;;;;;;0.10;0.10;;;;;;;;;;5025391;28;20357;-86
2022/12/07 05:27:01;;;;;;;0.10;0.10;;;4.10;99.90;;;;;;5026081;28;20042;-86
2022/12/07 05:29:28;;;;;;;0.10;0.10;;;;;;;;;;5008544;28;20069;-86
2022/12/07 05:31:55;;;;;;;0.10;0.10;;;4.10;99.90;;;;;;5005848;28;20041;-86
2022/12/07 05:34:22;;;;;;;0.10;0.10;;;;;;;;;;5029058;28;20117;-85
2022/12/07 05:36:50;;;;;;;0.10;0.10;;;;;;;;;;5003097;28;20041;-85
2022/12/07 05:39:17;;;;;;;0.10;0.10;;;;;;;;;;5009908;28;20499;-86
2022/12/07 05:44:30;;;;;;;0.10;0.10;;;4.00;99.90;;;;;;5000236;28;20462;-85
2022/12/07 05:46:57;;;;;;;0.20;0.20;;;;;;;;;;5011582;28;20064;-85
2022/12/07 05:49:25;;;;;;;0.10;0.10;;;;;;;;;;5012184;28;20065;-85
2022/12/07 05:51:52;;;;;;;0.10;0.10;;;4.00;99.90;;;;;;5010760;28;20050;-87
2022/12/07 05:54:19;;;;;;;0.10;0.10;;;;;;;;;;5006678;28;20073;-86
2022/12/07 05:56:46;;;;;;;0.10;0.10;;;4.00;99.90;;;;;;5026163;28;20038;-85
2022/12/07 05:59:25;;;;;;;0.10;0.10;;;3.90;99.90;;;;;;5019706;28;20038;-86
2022/12/07 06:01:55;;;;;;;0.10;0.10;;;4.00;99.90;;;;;;5005154;28;20145;-85
2022/12/07 06:04:23;;;;;;;0.10;0.10;;;3.90;99.90;;;;;;5022954;28;20112;-87
2022/12/07 06:06:51;;;;;;;0.10;0.10;;;3.90;99.90;;;;;;5004675;28;20115;-85
2022/12/07 06:09:18;;;;;;;0.10;0.10;;;;;;;;;;5025812;28;20131;-85
2022/12/07 06:14:31;;;;;;;0.10;0.10;;;3.90;99.90;;;;;;5008585;28;20419;-86
2022/12/07 06:17:00;;;;;;;0.20;0.20;;;4.00;99.90;;;;;;5014086;28;20073;-86
2022/12/07 06:19:27;;;;;;;0.10;0.10;;;;;;;;;;5030833;28;20041;-85
2022/12/07 06:21:55;;;;;;;0.10;0.10;;;4.00;99.90;;;;;;5012325;28;20084;-86
2022/12/07 06:24:22;;;;;;;0.10;0.10;;;;;;;;;;5008672;28;20062;-86
2022/12/07 06:26:49;;;;;;;0.10;0.10;;;;;;;;;;5023920;28;20062;-85
2022/12/07 06:29:17;;;;;;;0.10;0.10;;;;;;;;;;5008028;28;20078;-85
2022/12/07 06:31:44;;;;;;;0.10;0.10;;;;;;;;;;5006815;28;20141;-85
2022/12/07 06:34:15;;;;;;;0.10;0.10;;;4.00;99.90;;;;;;5027308;28;20049;-86
2022/12/07 06:36:42;;;;;;;0.13;0.13;;;;;;;;;;5010287;28;20044;-84
2022/12/07 06:39:09;;;;;;;0.10;0.10;;;3.90;99.90;;;;;;5009869;28;20100;-83
2022/12/07 06:41:37;;;;;;;0.10;0.10;;;3.90;99.90;;;;;;5015003;28;20180;-86
2022/12/07 06:44:04;;;;;;;0.10;0.10;;;3.90;99.90;;;;;;5010352;28;20066;-85
2022/12/07 06:46:31;;;;;;;0.10;0.10;;;;;;;;;;5030772;28;20129;-85
2022/12/07 06:48:58;;;;;;;0.10;0.10;;;3.80;99.90;;;;;;5013822;28;20046;-85
2022/12/07 06:51:27;;;;;;;0.10;0.10;;;3.80;99.90;;;;;;5017624;28;20045;-86
2022/12/07 06:53:54;;;;;;;0.10;0.10;;;;;;;;;;5012470;28;20062;-85
2022/12/07 06:56:22;;;;;;;0.10;0.10;;;;;;;;;;5018808;28;20077;-88
2022/12/07 06:58:49;;;;;;;0.20;0.20;;;;;;;;;;5013092;28;20047;-87
2022/12/07 07:01:18;;;;;;;0.00;0.00;;;3.80;99.90;;;;;;5014207;28;20161;-85
2022/12/07 07:03:45;;;;;;;0.10;0.10;;;3.80;99.90;;;;;;5006477;28;20049;-86
2022/12/07 07:06:14;;;;;;;0.10;0.10;;;3.80;99.90;;;;;;5029511;28;20103;-85
2022/12/07 07:08:44;;;;;;;0.10;0.10;;;3.80;99.90;;;;;;5011506;28;20042;-85
2022/12/07 07:11:11;;;;;;;0.10;0.10;;;;;;;;;;5010313;28;20510;-87
2022/12/07 07:13:39;;;;;;;0.10;0.10;;;3.80;99.90;;;;;;5026851;28;20042;-85
2022/12/07 07:16:07;;;;;;;0.10;0.10;;;3.70;99.90;;;;;;5025736;28;20041;-86
2022/12/07 07:18:34;;;;;;;0.10;0.10;;;3.70;99.90;;;;;;5022122;28;20050;-87
2022/12/07 07:21:01;;;;;;;0.10;0.10;;;;;;;;;;5000738;28;22466;-85
2022/12/07 07:23:28;;;;;;;0.15;0.15;;;;;;;;;;5023350;28;20050;-86
2022/12/07 07:25:57;;;;;;;0.20;0.20;;;3.70;99.90;;;;;;5008565;28;20042;-87
2022/12/07 07:28:24;;;;;;;0.10;0.10;;;;;;;;;;5025316;28;20037;-85
2022/12/07 07:30:51;;;;;;;0.10;0.10;;;;;;;;;;5028375;28;20573;-85
2022/12/07 07:33:18;;;;;;;0.10;0.10;;;3.80;99.90;;;;;;5019561;28;20070;-84
2022/12/07 07:35:45;;;;;;;0.10;0.10;;;;;;;;;;5008814;28;20430;-85
2022/12/07 07:38:12;;;;;;;0.10;0.10;;;;;;;;;;5011090;28;20465;-85
2022/12/07 07:40:40;;;;;;;0.10;0.10;;;;;;;;;;5010564;28;20050;-85
2022/12/07 07:43:08;;;;;;;0.10;0.10;;;3.80;99.90;;;;;;5011911;28;20073;-85
2022/12/07 07:45:35;;;;;;;0.17;0.17;;;3.80;99.90;;;;;;5014737;28;20080;-85
2022/12/07 07:48:02;;;;;;;0.08;0.08;;;;;;;;;;5010080;28;20062;-86
2022/12/07 07:50:29;;;;;;;0.10;0.10;;;3.80;99.90;;;;;;5010948;28;20053;-85
2022/12/07 07:52:57;;;;;;;0.10;0.10;;;3.90;99.90;;;;;;5017533;28;20407;-86
2022/12/07 07:55:24;;;;;;;0.10;0.10;;;;;;;;;;5007989;28;20121;-86
2022/12/07 07:57:51;;;;;;;0.10;0.10;;;3.90;99.90;;;;;;5008903;28;20054;-86
2022/12/07 08:00:22;;;;;;;0.10;0.10;;;4.00;99.90;;;;;;5022353;28;20046;-85
2022/12/07 08:02:49;;;;;;;0.10;0.10;;;4.00;99.90;;;;;;5006363;28;20169;-86
2022/12/07 08:05:17;;;;;;;0.20;0.20;;;;;;;;;;5011786;28;20112;-86
2022/12/07 08:07:44;;;;;;;0.10;0.10;;;;;;;;;;5013724;28;20515;-83
2022/12/07 08:10:13;;;;;;;0.10;0.10;;;4.00;99.90;;;;;;5008436;28;20065;-86
2022/12/07 08:13:10;;;;;;;0.17;0.17;;;;;;;;;;5013042;28;20076;-86
2022/12/07 08:15:30;;;;;;;0.20;0.20;;;4.10;99.90;;;;;;5013060;28;20073;-85
2022/12/07 08:17:58;;;;;;;0.20;0.20;;;4.00;99.90;;;;;;5023860;28;20041;-86
2022/12/07 08:20:25;;;;;;;0.10;0.10;;;;;;;;;;5021897;28;20042;-86
2022/12/07 08:22:52;;;;;;;0.10;0.10;;;;;;;;;;5006240;28;20478;-85
2022/12/07 08:25:20;;;;;;;0.10;0.10;;;;;;;;;;5008034;28;20802;-85
2022/12/07 08:27:47;;;;;;;0.00;0.00;;;;;;;;;;5012269;28;20046;-86
2022/12/07 08:30:14;;;;;;;0.17;0.17;;;4.10;99.90;;;;;;5005800;28;20029;-84
2022/12/07 08:32:44;;;;;;;0.10;0.10;;;4.10;99.90;;;;;;5027704;28;20507;-86
2022/12/07 08:35:11;;;;;;;0.10;0.10;;;4.10;99.90;;;;;;5022125;28;20080;-85
2022/12/07 08:37:38;;;;;;;0.10;0.10;;;;;;;;;;5023280;28;20085;-85
2022/12/07 08:40:07;;;;;;;0.10;0.10;;;4.20;99.90;;;;;;5008856;28;20065;-85
2022/12/07 08:42:40;;;;;;;0.10;0.10;;;4.10;99.90;;;;;;5012218;28;20495;-85
2022/12/07 08:45:09;;;;;;;0.00;0.00;;;4.20;99.90;;;;;;5007778;28;20191;-85
2022/12/07 08:47:40;;;;;;;0.10;0.10;;;4.20;99.90;;;;;;5003254;28;20136;-85
2022/12/07 08:50:11;;;;;;;0.10;0.10;;;4.10;99.90;;;;;;5026281;28;20470;-85
2022/12/07 08:52:40;;;;;;;0.10;0.10;;;4.20;99.90;;;;;;5008239;28;20072;-86
2022/12/07 08:55:11;;;;;;;0.10;0.10;;;4.20;99.90;;;;;;5009638;28;20523;-86
2022/12/07 08:57:39;;;;;;;0.10;0.10;;;4.10;99.90;;;;;;5024324;28;20042;-85
2022/12/07 09:00:07;;;;;;;0.10;0.10;;;5.30;99.90;;;;;;5020822;28;20491;-85
2022/12/07 09:02:34;;;;;;;0.10;0.10;;;4.10;99.90;;;;;;5008500;28;20074;-85
2022/12/07 09:05:01;;;;;;;0.10;0.10;;;4.20;99.90;;;;;;5023455;28;20084;-85
2022/12/07 09:07:31;;;;;;;0.10;0.10;;;4.30;99.90;;;;;;5006476;28;20073;-85
2022/12/07 09:09:58;;;;;;;0.10;0.10;;;4.30;99.90;;;;;;5020915;28;20034;-86
2022/12/07 09:12:26;;;;;;;0.13;0.13;;;4.30;99.90;;;;;;5020140;28;20050;-86
2022/12/07 09:14:52;;;;;;;0.10;0.10;;;4.30;99.90;;;;;;5023654;28;20085;-85
2022/12/07 09:17:19;;;;;;;0.10;0.10;;;4.40;99.90;;;;;;5009996;28;20054;-87
2022/12/07 09:19:46;;;;;;;0.10;0.10;;;;;;;;;;5027944;28;20109;-85
2022/12/07 09:22:14;;;;;;;0.13;0.13;;;;;;;;;;5021202;28;20126;-84
2022/12/07 09:24:43;;;;;;;0.10;0.10;;;4.30;99.90;;;;;;5012876;28;20050;-85
2022/12/07 09:27:10;;;;;;;0.10;0.10;;;;;;;;;;5018167;28;20140;-85
2022/12/07 09:29:37;;;;;;;0.15;0.15;;;;;;;;;;5010686;28;20550;-85
2022/12/07 09:32:04;;;;;;;0.10;0.10;;;4.30;99.90;;;;;;5008791;28;20080;-85
2022/12/07 09:34:37;;;;;;;0.03;0.03;;;4.30;99.90;;;;;;5009787;28;20532;-85
2022/12/07 09:37:06;;;;;;;0.10;0.10;;;;;;;;;;5009297;28;20104;-87
2022/12/07 09:39:33;;;;;;;0.20;0.20;;;;;;;;;;5008999;28;20058;-86
2022/12/07 09:42:04;;;;;;;0.10;0.10;;;4.20;99.90;;;;;;5009979;28;20037;-85
2022/12/07 09:44:32;;;;;;;0.10;0.10;;;4.30;99.90;;;;;;5006917;28;20474;-85
2022/12/07 09:46:59;;;;;;;0.10;0.10;;;;;;;;;;5008332;28;20121;-86
2022/12/07 09:49:30;;;;;;;0.10;0.10;;;4.40;99.90;;;;;;5009894;28;20521;-85
2022/12/07 09:52:03;;;;;;;0.20;0.20;;;4.50;99.90;;;;;;5009674;28;20137;-85
2022/12/07 09:54:31;;;;;;;0.10;0.10;;;;;;;;;;5014067;28;20080;-85
2022/12/07 09:56:59;;;;;;;0.10;0.10;;;4.70;99.90;;;;;;5004293;28;20073;-85
2022/12/07 09:59:27;;;;;;;0.10;0.10;;;4.60;99.90;;;;;;5013211;28;20072;-85
2022/12/07 10:02:24;;;;;;;0.10;0.10;;;4.70;99.90;;;;;;5003531;28;20077;-86
2022/12/07 10:04:52;;;;;;;0.10;0.10;;;;;;;;;;5013359;28;20358;-85
2022/12/07 10:07:19;;;;;;;0.20;0.20;;;;;;;;;;5012857;28;20049;-85
2022/12/07 10:09:46;;;;;;;0.10;0.10;;;;;;;;;;5012960;28;20043;-86
2022/12/07 10:12:13;;;;;;;0.10;0.10;;;4.80;99.90;;;;;;5011709;28;20133;-86
2022/12/07 10:14:55;;;;;;;0.10;0.10;;;4.80;99.90;;;;;;5027686;28;20077;-86
2022/12/07 10:17:36;;;;;;;0.10;0.10;;;4.80;99.90;;;;;;5010661;28;20753;-86
2022/12/07 10:20:18;;;;;;;0.20;0.20;;;4.90;99.90;;;;;;5005511;28;20039;-85
2022/12/07 10:22:58;;;;;;;0.10;0.10;;;4.80;99.90;;;;;;5017557;28;20058;-85
2022/12/07 10:25:28;;;;;;;0.10;0.10;;;4.90;99.90;;;;;;5024289;28;20072;-86
2022/12/07 10:28:00;;;;;;;0.10;0.10;;;5.00;99.90;;;;;;5017155;28;20081;-85
2022/12/07 10:30:29;;;;;;;0.10;0.10;;;5.00;99.90;;;;;;5029979;28;20518;-87
2022/12/07 10:32:56;;;;;;;0.20;0.20;;;;;;;;;;5016416;28;20069;-86
2022/12/07 10:35:25;;;;;;;0.10;0.10;;;5.10;99.90;;;;;;5011529;28;20050;-85
2022/12/07 10:37:54;;;;;;;0.20;0.20;;;5.00;99.90;;;;;;5029684;28;20506;-85
2022/12/07 10:40:31;;;;;;;0.20;0.20;;;5.00;99.90;;;;;;5032385;28;20030;-87
2022/12/07 10:43:03;;;;;;;0.10;0.10;;;4.90;99.90;;;;;;5015825;28;20053;-85
2022/12/07 10:45:32;;;;;;;0.10;0.10;;;5.00;99.90;;;;;;5015704;28;20116;-85
2022/12/07 10:48:14;;;;;;;0.10;0.10;;;4.90;99.90;;;;;;5016193;28;20096;-86
2022/12/07 10:50:59;;;;;;;0.10;0.10;;;4.90;99.90;;;;;;5015837;28;20072;-85
2022/12/07 10:53:47;;;;;;;0.10;0.10;;;6.10;99.90;;;;;;5033960;28;20583;-87
2022/12/07 10:56:36;;;;;;;0.10;0.10;;;5.00;99.90;;;;;;5027285;28;20140;-87
2022/12/07 10:59:24;;;;;;;0.10;0.10;;;5.00;99.90;;;;;;5011965;28;20132;-85
2022/12/07 11:02:06;;;;;;;0.10;0.10;;;5.00;99.90;;;;;;5010337;28;20495;-85
2022/12/07 11:04:42;;;;;;;0.10;0.10;;;5.10;99.90;;;;;;5028231;28;20069;-85
2022/12/07 11:07:16;;;;;;;0.20;0.20;;;5.10;99.90;;;;;;5005942;28;20045;-86
2022/12/07 11:09:56;;;;;;;0.05;0.05;;;5.30;99.90;;;;;;5025015;28;20124;-85
2022/12/07 11:13:04;;;;;;;0.10;0.10;;;5.30;99.90;;;;;;5014327;28;20042;-85
2022/12/07 11:15:42;;;;;;;0.10;0.10;;;5.40;99.90;;;;;;5005147;28;21122;-86
2022/12/07 11:18:18;;;;;;;0.10;0.10;;;5.40;99.90;;;;;;5007822;28;20058;-85
2022/12/07 11:20:55;;;;;;;0.03;0.03;;;5.50;99.90;;;;;;5023926;28;20038;-84
2022/12/07 11:23:30;;;;;;;0.10;0.10;;;5.60;99.90;;;;;;5011553;28;20133;-86
2022/12/07 11:26:07;;;;;;;0.10;0.10;;;5.60;99.90;;;;;;5003979;28;20072;-86
2022/12/07 11:28:50;;;;;;;0.10;0.10;;;5.70;99.90;;;;;;5004811;28;20113;-85
2022/12/07 11:31:25;;;;;;;0.10;0.10;;;5.70;99.90;;;;;;5020002;28;20069;-85
2022/12/07 11:34:23;;;;;;;0.10;0.10;;;5.70;99.90;;;;;;5007604;28;20081;-85
2022/12/07 11:36:52;;;;;;;0.10;0.10;;;5.70;99.90;;;;;;5004156;28;20514;-85
2022/12/07 11:39:25;;;;;;;0.10;0.10;;;5.80;99.90;;;;;;5010452;28;20085;-85
2022/12/07 11:42:00;;;;;;;0.10;0.10;;;5.60;99.90;;;;;;5003647;28;20057;-85
2022/12/07 11:44:34;;;;;;;0.10;0.10;;;5.60;99.90;;;;;;5005834;28;20041;-86
2022/12/07 11:47:07;;;;;;;0.10;0.10;;;5.70;99.90;;;;;;5022544;28;20096;-85
2022/12/07 11:49:44;;;;;;;0.10;0.10;;;5.60;99.90;;;;;;5011328;28;20432;-84
2022/12/07 11:52:20;;;;;;;0.08;0.08;;;5.70;99.90;;;;;;5026432;28;20050;-86
2022/12/07 11:54:49;;;;;;;0.10;0.10;;;5.80;99.90;;;;;;5026381;28;20072;-85
2022/12/07 11:57:24;;;;;;;0.10;0.10;;;5.90;99.90;;;;;;5019451;28;20058;-85
2022/12/07 11:59:56;;;;;;;0.10;0.10;;;5.90;99.90;;;;;;5010753;28;20054;-84
2022/12/07 12:02:26;;;;;;;0.10;0.10;;;6.00;99.90;;;;;;5023779;28;20122;-85
2022/12/07 12:04:59;;;;;;;0.10;0.10;;;5.90;99.90;;;;;;5025097;28;20057;-84
2022/12/07 12:07:28;;;;;;;0.10;0.10;;;5.90;99.90;;;;;;5019309;28;20107;-84
2022/12/07 12:10:20;;;;;;;0.10;0.10;;;5.90;99.90;;;;;;5018115;28;20114;-84
2022/12/07 12:13:28;;;;;;;0.10;0.10;;;5.70;99.90;;;;;;5005638;28;20050;-84
2022/12/07 12:16:54;;;;;;;0.17;0.17;;;6.70;99.90;;;;;;5021808;28;20530;-84
2022/12/07 12:19:33;;;;;;;0.10;0.10;;;5.70;99.90;;;;;;5008989;28;20049;-84
2022/12/07 12:22:10;;;;;;;0.15;0.15;;;5.70;99.90;;;;;;5025390;28;20053;-84
2022/12/07 12:24:40;;;;;;;0.00;0.00;;;5.80;99.90;;;;;;5011246;28;20092;-83
2022/12/07 12:27:10;;;;;;;0.10;0.10;;;5.70;99.90;;;;;;5007017;28;20042;-81
2022/12/07 12:29:40;;;;;;;0.10;0.10;;;5.70;99.90;;;;;;5003814;28;20698;-84
2022/12/07 12:32:14;;;;;;;0.10;0.10;;;5.70;99.90;;;;;;5004531;28;20085;-84
2022/12/07 12:34:59;;;;;;;0.00;0.00;;;5.90;99.90;;;;;;5025534;28;20074;-85
2022/12/07 12:37:42;;;;;;;0.10;0.10;;;5.90;99.90;;;;;;5017697;28;20129;-84
2022/12/07 12:40:39;;;;;;;0.10;0.10;;;6.00;99.90;;;;;;5019301;28;20034;-83
2022/12/07 12:43:39;;;;;;;0.10;0.10;;;6.00;99.90;;;;;;5011207;28;20054;-83
2022/12/07 12:46:49;;;;;;;0.10;0.10;;;5.90;99.90;;;;;;5022080;28;20050;-83
2022/12/07 12:49:44;;;;;;;;;;;5.80;99.90;;;;;;5020823;28;20042;-84
2022/12/07 12:52:46;;;;;;;0.10;0.10;;;5.90;99.90;;;;;;5023529;28;20004;-84
2022/12/07 12:55:34;;;;;;;0.10;0.10;;;5.80;99.90;;;;;;5015238;28;20135;-84
2022/12/07 12:58:31;;;;;;;0.10;0.10;;;5.90;99.90;;;;;;4967387;28;20144;-83
2022/12/07 13:01:44;;;;;;;0.10;0.10;;;6.00;99.90;;;;;;5024988;28;20129;-84
2022/12/07 13:04:24;;;;;;;0.10;0.10;;;6.00;99.90;;;;;;5010145;28;20049;-84
2022/12/07 13:06:52;;;;;;;;;;;6.10;99.90;;;;;;5007916;28;20136;-85
2022/12/07 13:09:23;;;;;;;0.10;0.10;;;6.10;99.90;;;;;;5003657;28;20870;-84
2022/12/07 13:11:59;;;;;;;0.10;0.10;;;6.10;99.90;;;;;;5010579;28;20471;-84
2022/12/07 13:14:54;;;;;;;0.10;0.10;;;6.10;99.90;;;;;;5010558;28;20161;-84
2022/12/07 13:17:56;;;;;;;0.10;0.10;;;6.20;99.90;;;;;;5007121;28;20070;-84
2022/12/07 13:20:46;;;;;;;0.10;0.10;;;6.20;99.90;;;;;;5029199;28;20062;-84
2022/12/07 13:23:17;;;;;;;0.10;0.10;;;6.20;99.90;;;;;;5020972;28;20153;-84
2022/12/07 13:26:13;;;;;;;0.10;0.10;;;6.20;99.90;;;;;;5015290;28;20050;-83
2022/12/07 13:28:47;;;;;;;0.10;0.10;;;6.30;99.90;;;;;;5008015;28;20046;-84
2022/12/07 13:31:36;;;;;;;0.10;0.10;;;6.30;99.90;;;;;;5009893;28;20049;-83
2022/12/07 13:34:05;;;;;;;0.10;0.10;;;6.10;99.90;;;;;;5013167;28;20046;-80
2022/12/07 13:36:35;;;;;;;0.10;0.10;;;6.20;99.90;;;;;;5012680;28;20052;-85
2022/12/07 13:39:18;;;;;;;0.10;0.10;;;6.20;99.90;;;;;;5011162;28;20037;-81
2022/12/07 13:41:51;;;;;;;0.10;0.10;;;6.20;99.90;;;;;;5028460;28;20447;-83
2022/12/07 13:44:19;;;;;;;0.10;0.10;;;6.10;99.90;;;;;;5026464;28;20048;-82
2022/12/07 13:46:58;;;;;;;0.10;0.10;;;6.10;99.90;;;;;;5028642;28;20081;-84
2022/12/07 13:49:26;;;;;;;0.08;0.08;;;6.10;99.90;;;;;;5012319;28;20080;-84
2022/12/07 13:51:54;;;;;;;0.10;0.10;;;6.00;99.90;;;;;;5010302;28;20042;-85
2022/12/07 13:54:21;;;;;;;0.10;0.10;;;;;;;;;;5006575;28;20042;-84
2022/12/07 13:56:51;;;;;;;0.20;0.20;;;5.90;99.90;;;;;;5005389;28;20054;-84